Latest Weather Observations for Walgett

IDN60801

Issued at 7:35 pm EST Thursday 17 April 2014 (issued every 30 minutes, with the page automatically refreshed every 10 minutes)

About weather observations | Map of weather stations | Latest weather observations for NSW | Other Formats
Station Details ID: 052088 Name: WALGETT AIRPORT AWS Lat: -30.04 Lon: 148.12 Height: 133.0 m
Data from the previous 72 hours. | See also: Recent months at Walgett
Date/Time
EST
Temp
°C
App
Temp
°C
Dew
Point
Rel
Hum
%
Delta-T
°C
Wind Press
QNH
hPa
Press
MSL
hPa
Rain
since 9 am
mm
Dir
 
Spd
km/h
Gust
km/h
Spd
kts
Gust
kts
17/07:30pm 18.0 15.1 4.6 41 6.4 S 9 13 5 7 1019.0 - 0.0
17/07:00pm 19.3 15.6 4.3 37 7.2 S 13 15 7 8 1018.7 - 0.0
17/06:30pm 20.7 16.7 4.7 35 7.8 S 15 19 8 10 1018.4 - 0.0
17/06:00pm 22.0 17.7 5.4 34 8.3 S 17 20 9 11 1018.2 1017.8 0.0
17/05:30pm 23.7 19.1 5.6 31 9.2 S 19 24 10 13 1018.0 - 0.0
17/05:00pm 24.8 21.1 6.1 30 9.7 SSW 15 22 8 12 1017.7 - 0.0
17/04:30pm 25.2 20.6 5.4 28 10.1 S 19 26 10 14 1017.5 - 0.0
17/04:00pm 26.3 22.2 6.3 28 10.5 SW 17 24 9 13 1017.4 - 0.0
17/03:30pm 26.2 21.5 5.2 26 10.8 S 19 24 10 13 1017.5 - 0.0
17/03:00pm 26.1 21.7 4.6 25 10.9 S 17 26 9 14 1017.5 1017.2 0.0
17/02:30pm 26.1 21.7 4.6 25 10.9 S 17 26 9 14 1017.8 - 0.0
17/02:00pm 25.9 21.2 6.0 28 10.3 SW 20 28 11 15 1017.9 - 0.0
17/01:30pm 25.8 21.9 5.4 27 10.5 SSW 15 24 8 13 1018.0 - 0.0
17/01:00pm 25.3 21.8 7.4 32 9.5 S 15 26 8 14 1018.3 - 0.0
17/12:30pm 25.8 22.7 8.8 34 9.3 S 15 26 8 14 1018.9 - 0.0
17/12:00pm 25.2 21.9 8.2 34 9.1 S 15 24 8 13 1019.5 1019.2 0.0
17/11:30am 24.4 21.1 8.0 35 8.8 S 15 24 8 13 1020.1 - 0.0
17/11:00am 24.6 22.2 8.5 36 8.7 SSE 11 17 6 9 1020.3 - 0.0
17/10:30am 23.9 21.7 9.5 40 7.9 SSE 11 22 6 12 1020.5 - 0.0
17/10:00am 22.9 22.0 11.3 48 6.5 SSE 7 11 4 6 1020.6 - 0.0
17/09:30am 21.5 20.5 10.9 51 5.8 SE 7 11 4 6 1020.7 - 0.0
17/09:00am 20.0 18.5 10.7 55 5.1 SE 9 11 5 6 1020.6 1020.3 0.0
17/08:30am 18.3 17.2 10.7 61 4.1 SSE 7 9 4 5 1020.5 - 0.0
17/08:00am 15.7 14.4 10.0 69 3.0 S 7 9 4 5 1020.3 - 0.0
17/07:30am 13.4 12.0 9.6 78 2.0 S 7 9 4 5 1019.9 - 0.0
17/07:00am 10.6 8.9 7.7 82 1.4 S 6 7 3 4 1019.5 - 0.0
17/06:30am 9.9 8.0 7.5 85 1.2 S 7 9 4 5 1019.2 - 0.0
17/06:00am 9.3 7.1 6.4 82 1.3 S 7 9 4 5 1018.8 1018.4 0.0
17/05:30am 10.1 8.3 7.0 81 1.5 SSW 6 7 3 4 1018.8 - 0.0
17/05:00am 11.1 9.5 8.1 82 1.5 S 6 7 3 4 1018.6 - 0.0
17/04:30am 11.4 9.5 7.5 77 1.9 S 7 9 4 5 1018.5 - 0.0
17/04:00am 11.7 9.4 7.4 75 2.1 S 9 11 5 6 1018.3 - 0.0
17/03:30am 11.8 10.0 8.1 78 1.8 S 7 11 4 6 1018.1 - 0.0
17/03:00am 12.1 9.8 7.6 74 2.2 S 9 11 5 6 1018.1 1017.7 0.0
17/02:30am 12.7 11.1 8.6 76 2.1 S 7 11 4 6 1018.0 - 0.0
17/02:00am 12.6 10.7 7.5 71 2.5 S 7 9 4 5 1018.2 - 0.0
17/01:30am 13.3 11.1 8.0 70 2.6 S 9 11 5 6 1018.4 - 0.0
17/01:00am 13.9 11.3 7.9 67 3.0 S 11 13 6 7 1018.3 - 0.0
17/12:30am 14.6 12.6 8.5 67 3.1 S 9 13 5 7 1018.4 - 0.0
17/12:00am 15.1 12.7 8.6 65 3.3 S 11 13 6 7 1018.3 1017.9 0.0
 
Date/Time
EST
Temp
°C
App
Temp
°C
Dew
Point
Rel
Hum
%
Delta-T
°C
Wind Press
QNH
hPa
Press
MSL
hPa
Rain
since 9 am
mm
Dir
 
Spd
km/h
Gust
km/h
Spd
kts
Gust
kts
16/11:30pm 14.8 13.0 8.1 64 3.4 S 7 11 4 6 1018.2 - 0.0
16/11:00pm 15.9 13.9 8.6 62 3.7 SSW 9 15 5 8 1018.4 - 0.0
16/10:30pm 15.7 13.3 7.2 57 4.2 SSW 9 11 5 6 1018.4 - 0.0
16/10:00pm 16.7 14.1 7.6 55 4.6 SSW 11 15 6 8 1018.2 - 0.0
16/09:30pm 16.8 13.9 6.6 51 5.1 S 11 13 6 7 1018.0 - 0.0
16/09:00pm 17.7 14.8 6.3 47 5.6 S 11 15 6 8 1018.0 1017.6 0.0
16/08:30pm 18.6 15.4 6.8 46 5.9 S 13 15 7 8 1017.7 - 0.0
16/08:00pm 19.0 15.7 6.5 44 6.3 S 13 15 7 8 1017.3 - 0.0
16/07:30pm 19.7 16.5 6.8 43 6.5 S 13 15 7 8 1017.1 - 0.0
16/07:00pm 21.3 18.2 7.2 40 7.3 SSW 13 15 7 8 1016.9 - 0.0
16/06:30pm 21.9 19.2 7.3 39 7.6 SSW 11 15 6 8 1016.7 - 0.0
16/06:00pm 22.7 19.7 7.7 38 7.9 S 13 15 7 8 1016.4 1016.1 0.0
16/05:30pm 24.4 20.3 8.0 35 8.8 S 19 24 10 13 1016.0 - 0.0
16/05:00pm 25.4 22.1 8.0 33 9.3 S 15 19 8 10 1015.7 - 0.0
16/04:30pm 26.1 22.4 8.1 32 9.7 S 17 26 9 14 1015.6 - 0.0
16/04:00pm 26.4 22.4 8.4 32 9.8 S 19 30 10 16 1015.4 - 0.0
16/03:30pm 25.0 22.5 8.1 34 9.1 SW 11 19 6 10 1015.6 - 0.0
16/03:00pm 25.1 22.0 9.0 36 8.8 SSW 15 20 8 11 1015.6 1015.3 0.0
16/02:30pm 26.3 25.0 9.2 34 9.4 SSE 6 11 3 6 1015.7 - 0.0
16/02:00pm 26.0 23.0 9.4 35 9.2 S 15 22 8 12 1015.8 - 0.0
16/01:30pm 26.5 25.3 10.2 36 9.1 SSW 7 13 4 7 1016.1 - 0.0
16/01:00pm 24.8 22.9 9.1 37 8.6 SE 9 17 5 9 1016.7 - 0.0
16/12:30pm 25.4 24.0 10.8 40 8.2 SSE 9 17 5 9 1016.9 - 0.0
16/12:00pm 24.1 22.4 9.7 40 7.9 SSW 9 15 5 8 1017.4 1017.1 0.0
16/11:30am 23.8 22.3 10.5 43 7.4 E 9 17 5 9 1017.9 - 0.0
16/11:00am 23.3 21.5 11.0 46 6.9 E 11 17 6 9 1018.3 - 0.0
16/10:30am 22.6 20.3 11.7 50 6.2 E 15 20 8 11 1018.5 - 0.0
16/10:00am 22.4 20.5 11.8 51 6.0 E 13 19 7 10 1018.6 - 0.0
16/09:30am 20.9 18.2 11.8 56 5.1 E 17 22 9 12 1018.8 - 0.0
16/09:00am 19.2 16.8 11.3 60 4.3 ESE 15 22 8 12 1018.7 1018.3 1.6
16/08:30am 18.1 15.3 11.2 64 3.8 ESE 17 20 9 11 1018.7 - 1.6
16/08:00am 16.6 14.5 11.3 71 2.9 SSE 13 17 7 9 1018.7 - 1.6
16/07:30am 13.7 12.2 10.7 82 1.6 S 9 11 5 6 1018.4 - 1.6
16/07:00am 12.7 10.9 9.5 81 1.6 S 9 9 5 5 1017.7 - 1.6
16/06:30am 12.6 10.8 9.4 81 1.6 SSE 9 11 5 6 1017.2 - 1.6
16/06:00am 12.7 11.0 9.7 82 1.5 SSE 9 11 5 6 1017.1 1016.8 1.6
16/05:30am 13.1 11.8 9.9 81 1.7 SSE 7 9 4 5 1016.9 - 1.6
16/05:00am 12.1 10.6 9.1 82 1.5 SSW 7 9 4 5 1017.0 - 1.6
16/04:30am 12.6 11.0 8.9 78 1.9 S 7 9 4 5 1016.6 - 1.6
16/04:00am 12.9 11.5 9.4 79 1.8 SSE 7 11 4 6 1016.7 - 1.6
16/03:30am 13.6 11.8 9.6 77 2.1 S 9 11 5 6 1016.6 - 1.6
16/03:00am 14.3 13.2 9.9 75 2.3 S 6 7 3 4 1016.5 1016.2 1.6
16/02:30am 15.8 14.7 10.6 71 2.8 ESE 7 13 4 7 1016.5 - 1.6
16/02:00am 14.9 13.8 10.5 75 2.3 SSE 7 9 4 5 1016.8 - 1.6
16/01:30am 15.5 14.1 10.9 74 2.5 S 9 9 5 5 1017.1 - 1.6
16/01:00am 16.4 15.4 11.1 71 2.9 ESE 7 9 4 5 1017.1 - 1.6
16/12:30am 16.6 15.0 11.5 72 2.8 S 11 13 6 7 1017.3 - 1.6
16/12:00am 17.2 15.8 12.1 72 2.8 S 11 15 6 8 1017.1 1016.8 1.6
 
Date/Time
EST
Temp
°C
App
Temp
°C
Dew
Point
Rel
Hum
%
Delta-T
°C
Wind Press
QNH
hPa
Press
MSL
hPa
Rain
since 9 am
mm
Dir
 
Spd
km/h
Gust
km/h
Spd
kts
Gust
kts
15/11:30pm 17.3 17.6 13.4 78 2.2 SSW 4 7 2 4 1017.2 - 1.6
15/11:00pm 17.5 17.4 14.0 80 2.0 SW 7 9 4 5 1017.3 - 1.6
15/10:30pm 17.1 16.8 14.4 84 1.6 SW 9 11 5 6 1017.3 - 1.6
15/10:00pm 17.2 18.4 14.8 86 1.4 WNW 2 9 1 5 1017.5 - 1.6
15/09:30pm 17.5 19.2 15.1 86 1.4 CALM 0 0 0 0 1017.5 - 1.6
15/09:00pm 18.7 20.5 15.4 81 1.9 CALM 0 6 0 3 1017.4 1017.1 1.6
15/08:42pm 18.7 18.8 15.4 81 2.0 NNW 9 19 5 10 1017.7 - 1.6
15/08:30pm 19.6 19.8 14.6 73 2.9 E 7 15 4 8 1017.2 - 1.6
15/08:24pm 19.2 19.1 14.9 76 2.5 N 9 13 5 7 1017.2 - 1.2
15/08:00pm 20.7 18.2 13.6 64 4.1 N 19 20 10 11 1017.2 - 0.0
15/07:30pm 23.0 19.7 11.7 49 6.4 SE 20 26 11 14 1016.3 - 0.0
15/07:00pm 23.2 21.4 12.2 50 6.3 SSE 13 15 7 8 1016.1 - 0.0
15/06:30pm 23.1 20.6 12.4 51 6.1 SSE 17 22 9 12 1015.7 - 0.0
15/06:00pm 23.3 20.4 12.3 50 6.3 SSE 19 24 10 13 1015.6 1015.3 0.0
15/05:30pm 24.2 20.3 12.2 47 6.9 SSE 24 30 13 16 1015.2 - 0.0
15/05:00pm 25.2 22.9 11.7 43 7.7 SE 15 19 8 10 1014.7 - 0.0
15/04:30pm 25.9 24.3 11.6 40 8.2 SE 11 17 6 9 1014.5 - 0.0
15/04:00pm 25.6 22.6 12.1 43 7.8 SSE 19 24 10 13 1014.5 - 0.0
15/03:30pm 26.2 25.1 11.9 41 8.2 E 9 19 5 10 1014.3 - 0.0
15/03:00pm 26.6 25.2 12.3 41 8.3 ESE 11 17 6 9 1014.6 1014.3 0.0
15/02:30pm 26.8 25.4 12.1 40 8.5 ENE 11 19 6 10 1015.0 - 0.0
15/02:00pm 26.8 25.7 13.2 43 8.0 ENE 11 17 6 9 1015.2 - 0.0
15/01:30pm 26.1 25.9 12.9 44 7.7 ENE 6 13 3 7 1015.4 - 0.0
15/01:00pm 26.9 26.3 13.6 44 7.9 E 9 17 5 9 1015.7 - 0.0
15/12:30pm 25.8 24.9 13.6 47 7.2 ENE 11 20 6 11 1016.2 - 0.0
15/12:00pm 25.2 23.3 13.1 47 7.1 E 15 22 8 12 1016.8 1016.5 0.0
15/11:30am 23.8 22.1 12.4 48 6.6 NE 13 24 7 13 1017.5 - 0.0
15/11:00am 23.8 21.1 12.8 50 6.4 ENE 19 26 10 14 1017.9 - 0.0
15/10:30am 23.4 20.7 13.0 52 6.0 E 19 30 10 16 1018.1 - 0.0
15/10:00am 22.6 19.7 12.3 52 5.9 ENE 19 26 10 14 1018.2 - 0.0
15/09:30am 21.3 19.3 12.7 58 4.9 E 15 22 8 12 1018.4 - 0.0
15/09:00am 19.7 17.1 12.0 61 4.3 E 17 22 9 12 1018.5 1018.1 0.0
15/08:30am 18.3 15.2 11.6 65 3.7 E 19 24 10 13 1018.3 - 0.0
15/08:00am 17.7 15.4 11.9 69 3.2 E 15 22 8 12 1018.2 - 0.0
15/07:30am 15.2 13.9 11.2 77 2.2 E 9 13 5 7 1017.9 - 0.0
15/07:00am 14.0 12.7 11.2 83 1.5 E 9 13 5 7 1017.5 - 0.0
15/06:30am 12.1 10.5 8.9 81 1.6 SSE 7 9 4 5 1017.3 - 0.0
15/06:00am 13.1 11.3 9.4 78 1.9 SE 9 13 5 7 1017.0 1016.7 0.0
15/05:30am 12.3 10.5 9.5 83 1.4 E 9 11 5 6 1016.6 - 0.0
15/05:00am 12.0 10.3 8.3 78 1.8 SSE 7 9 4 5 1016.5 - 0.0
15/04:30am 11.8 9.9 7.7 76 2.0 SSE 7 9 4 5 1016.3 - 0.0
15/04:00am 13.1 11.6 9.0 76 2.1 SSE 7 9 4 5 1016.1 - 0.0
15/03:30am 12.3 9.7 7.8 74 2.2 S 11 13 6 7 1016.1 - 0.0
15/03:00am 12.8 10.3 8.3 74 2.2 S 11 13 6 7 1016.1 1015.8 0.0
15/02:30am 13.3 11.1 8.0 70 2.6 S 9 11 5 6 1016.2 - 0.0
15/02:00am 13.8 11.7 8.4 70 2.7 S 9 11 5 6 1016.3 - 0.0
15/01:30am 14.8 12.6 9.4 70 2.8 SE 11 13 6 7 1016.4 - 0.0
15/01:00am 15.0 13.5 9.1 68 3.0 SSE 7 9 4 5 1016.6 - 0.0
15/12:30am 15.4 13.5 9.1 66 3.3 SSE 9 9 5 5 1016.5 - 0.0
15/12:00am 16.9 15.1 9.3 61 4.0 SSE 9 11 5 6 1016.5 1016.2 0.0
 
Date/Time
EST
Temp
°C
App
Temp
°C
Dew
Point
Rel
Hum
%
Delta-T
°C
Wind Press
QNH
hPa
Press
MSL
hPa
Rain
since 9 am
mm
Dir
 
Spd
km/h
Gust
km/h
Spd
kts
Gust
kts
14/11:30pm 17.2 15.2 10.3 64 3.7 SE 11 13 6 7 1016.8 - 0.0
14/11:00pm 17.8 16.3 10.4 62 4.0 SSE 9 11 5 6 1016.7 - 0.0
14/10:30pm 18.7 16.9 10.8 60 4.3 SSE 11 13 6 7 1016.4 - 0.0
14/10:00pm 19.8 17.3 11.0 57 4.8 SSE 15 19 8 10 1016.3 - 0.0
14/09:30pm 20.4 17.1 10.8 54 5.3 SSE 19 24 10 13 1016.1 - 0.0
14/09:00pm 20.6 17.2 10.7 53 5.4 S 19 22 10 12 1015.9 1015.6 0.0
14/08:30pm 21.0 18.3 10.5 51 5.8 S 15 19 8 10 1015.8 - 0.0
14/08:00pm 21.4 18.4 10.6 50 5.9 S 17 20 9 11 1015.6 - 0.0

Other Formats:

Comma delimited format used in spreadsheet applications
http://www.bom.gov.au/fwo/IDN60801/IDN60801.95715.axf

JavaScript Object Notation format (JSON) in row-major order
http://www.bom.gov.au/fwo/IDN60801/IDN60801.95715.json